Time;durP1;ratioP1;P1;durP2;ratioP2;P2;SDS_P1;SDS_P2;PMS_P1;PMS_P2;Temp;Humidity;BMP_temperature;BMP_pressure;BME280_temperature;BME280_humidity;BME280_pressure;Samples;Min_cycle;Max_cycle;Signal;HPM_P1;HPM_P2
2022/12/28 00:02:07;;;;;;;;;;;15.00;67.40;;;;;;5075520;28;19908;-89
2022/12/28 00:04:32;;;;;;;;;;;15.00;67.50;;;;;;5074579;28;19912;-89
2022/12/28 00:06:58;;;;;;;;;;;15.00;67.60;;;;;;5074962;28;19916;-89
2022/12/28 00:09:24;;;;;;;;;;;14.90;67.40;;;;;;5074328;28;19908;-89
2022/12/28 00:11:49;;;;;;;;;;;14.90;67.50;;;;;;5075462;28;19908;-88
2022/12/28 00:14:15;;;;;;;;;;;14.90;67.50;;;;;;5076258;28;20294;-90
2022/12/28 00:16:41;;;;;;;;;;;14.80;67.40;;;;;;5076668;28;19919;-88
2022/12/28 00:19:12;;;;;;;;;;;14.80;67.50;;;;;;5075757;28;19946;-89
2022/12/28 00:21:38;;;;;;;;;;;14.80;67.50;;;;;;5076810;28;19918;-89
2022/12/28 00:24:03;;;;;;;;;;;14.80;67.70;;;;;;5077901;28;19909;-89
2022/12/28 00:26:30;;;;;;;;;;;14.80;67.80;;;;;;5077472;28;20270;-89
2022/12/28 00:28:57;;;;;;;;;;;14.70;67.80;;;;;;5077618;28;19923;-89
2022/12/28 00:31:22;;;;;;;;;;;14.70;67.80;;;;;;5077315;28;19908;-89
2022/12/28 00:33:48;;;;;;;;;;;14.70;68.10;;;;;;5076444;28;20166;-89
2022/12/28 00:36:14;;;;;;;;;;;14.70;67.80;;;;;;5078224;28;19932;-89
2022/12/28 00:38:39;;;;;;;;;;;14.70;68.20;;;;;;5077698;28;20182;-89
2022/12/28 00:41:05;;;;;;;;;;;14.60;68.00;;;;;;5077578;28;19919;-89
2022/12/28 00:43:31;;;;;;;;;;;14.60;67.80;;;;;;5094614;28;20281;-88
2022/12/28 00:45:57;;;;;;;;;;;14.60;68.10;;;;;;5076420;28;20011;-89
2022/12/28 00:48:23;;;;;;;;;;;14.60;67.90;;;;;;5077444;28;19962;-89
2022/12/28 00:50:48;;;;;;;;;;;14.60;68.00;;;;;;5077673;28;19915;-89
2022/12/28 00:53:14;;;;;;;;;;;14.60;68.10;;;;;;5077658;28;19912;-89
2022/12/28 00:55:40;;;;;;;;;;;14.60;68.30;;;;;;5076745;28;19943;-89
2022/12/28 00:58:06;;;;;;;;;;;14.60;68.40;;;;;;5093992;28;19908;-89
2022/12/28 01:00:33;;;;;;;;;;;14.50;68.40;;;;;;5076068;28;19938;-89
2022/12/28 01:02:58;;;;;;;;;;;14.60;68.50;;;;;;5073991;28;20162;-88
2022/12/28 01:05:24;;;;;;;;;;;14.50;68.30;;;;;;5075590;28;20352;-89
2022/12/28 01:07:49;;;;;;;;;;;14.50;68.50;;;;;;5074625;28;20011;-89
2022/12/28 01:10:15;;;;;;;;;;;14.50;68.50;;;;;;5075335;28;19919;-88
2022/12/28 01:12:41;;;;;;;;;;;14.50;68.60;;;;;;5075362;28;19908;-89
2022/12/28 01:15:08;;;;;;;;;;;14.50;68.50;;;;;;5076283;28;20342;-89
2022/12/28 01:17:33;;;;;;;;;;;14.50;68.50;;;;;;5076041;28;20132;-89
2022/12/28 01:20:02;;;;;;;;;;;14.40;68.60;;;;;;5075204;28;20047;-88
2022/12/28 01:22:27;;;;;;;;;;;14.40;68.50;;;;;;5075604;28;19923;-89
2022/12/28 01:24:53;;;;;;;;;;;14.40;68.60;;;;;;5094250;28;19908;-90
2022/12/28 01:27:19;;;;;;;;;;;14.40;68.70;;;;;;5076071;28;20176;-89
2022/12/28 01:29:44;;;;;;;;;;;14.40;68.80;;;;;;5093991;28;19912;-89
2022/12/28 01:32:10;;;;;;;;;;;14.30;68.80;;;;;;5076000;28;19969;-90
2022/12/28 01:34:35;;;;;;;;;;;14.30;68.90;;;;;;5077155;28;19955;-89
2022/12/28 01:37:01;;;;;;;;;;;14.30;69.00;;;;;;5077102;28;19907;-88
2022/12/28 01:39:27;;;;;;;;;;;14.30;69.10;;;;;;5074669;28;19908;-89
2022/12/28 01:41:52;;;;;;;;;;;14.30;69.10;;;;;;5076888;28;20237;-89
2022/12/28 01:44:24;;;;;;;;;;;14.30;69.00;;;;;;5075541;28;20345;-88
2022/12/28 01:47:04;;;;;;;;;;;14.30;69.20;;;;;;5076380;28;20006;-89
2022/12/28 01:49:38;;;;;;;;;;;14.20;69.20;;;;;;5076749;28;19919;-89
2022/12/28 01:52:23;;;;;;;;;;;14.20;69.20;;;;;;5075321;28;19916;-89
2022/12/28 01:54:51;;;;;;;;;;;14.20;69.30;;;;;;5075157;28;19915;-89
2022/12/28 01:57:18;;;;;;;;;;;14.20;69.30;;;;;;5075260;28;19927;-89
2022/12/28 02:02:19;;;;;;;;;;;14.20;69.50;;;;;;5222820;22;19924;-91
2022/12/28 02:04:45;;;;;;;;;;;14.10;69.60;;;;;;5074404;28;19919;-90
2022/12/28 02:07:13;;;;;;;;;;;14.10;69.60;;;;;;5075040;28;20192;-91
2022/12/28 02:09:40;;;;;;;;;;;14.10;69.50;;;;;;5076870;28;19939;-91
2022/12/28 02:12:07;;;;;;;;;;;14.10;69.60;;;;;;5075972;28;20014;-91
2022/12/28 02:14:33;;;;;;;;;;;14.10;69.60;;;;;;5077175;28;19909;-90
2022/12/28 02:16:58;;;;;;;;;;;14.10;69.70;;;;;;5075851;28;19918;-90
2022/12/28 02:19:32;;;;;;;;;;;14.10;69.60;;;;;;5075685;28;20191;-90
2022/12/28 02:22:09;;;;;;;;;;;14.00;69.70;;;;;;5078727;28;19947;-90
2022/12/28 02:24:56;;;;;;;;;;;14.10;69.80;;;;;;5078537;28;20258;-91
2022/12/28 02:27:36;;;;;;;;;;;14.00;69.80;;;;;;5062715;28;19919;-91
2022/12/28 02:30:05;;;;;;;;;;;14.00;69.90;;;;;;5094263;28;20232;-90
2022/12/28 02:32:34;;;;;;;;;;;14.00;70.00;;;;;;5077232;28;20364;-90
2022/12/28 02:35:08;;;;;;;;;;;14.00;70.00;;;;;;5076222;28;20261;-90
2022/12/28 02:37:52;;;;;;;;;;;14.00;70.00;;;;;;5094295;28;20068;-90
2022/12/28 02:40:22;;;;;;;;;;;14.00;70.10;;;;;;5076259;28;19971;-90
2022/12/28 02:42:48;;;;;;;;;;;14.00;70.10;;;;;;5057606;28;20036;-91
2022/12/28 02:51:20;;;;;;;;;;;13.90;70.20;;;;;;5095061;28;20079;-91
2022/12/28 02:53:58;;;;;;;;;;;13.90;70.30;;;;;;5078210;28;19948;-90
2022/12/28 02:56:59;;;;;;;;;;;13.90;70.30;;;;;;5079042;28;19908;-91
2022/12/28 02:59:43;;;;;;;;;;;13.90;70.30;;;;;;5000265;28;20288;-90
2022/12/28 03:02:28;;;;;;;;;;;13.90;70.50;;;;;;5072962;28;19916;-90
2022/12/28 03:05:04;;;;;;;;;;;13.90;70.50;;;;;;5079788;28;19908;-91
2022/12/28 03:08:18;;;;;;;;;;;13.90;70.70;;;;;;5079170;28;19912;-91
2022/12/28 03:10:56;;;;;;;;;;;13.90;70.70;;;;;;5015049;28;20004;-90
2022/12/28 03:13:43;;;;;;;;;;;13.90;70.80;;;;;;5078086;28;19908;-91
2022/12/28 03:16:21;;;;;;;;;;;13.90;70.80;;;;;;5080508;28;19919;-90
2022/12/28 03:32:44;;;;;;;;;;;13.80;71.00;;;;;;5099406;28;19955;-89
2022/12/28 03:35:10;;;;;;;;;;;13.80;71.20;;;;;;5081717;28;19916;-90
2022/12/28 03:37:57;;;;;;;;;;;13.80;71.50;;;;;;5081987;28;19957;-90
2022/12/28 03:40:28;;;;;;;;;;;13.80;71.60;;;;;;5082258;28;19908;-90
2022/12/28 03:46:01;;;;;;;;;;;13.70;71.90;;;;;;5098444;28;20293;-91
2022/12/28 03:48:27;;;;;;;;;;;13.70;72.10;;;;;;5080609;28;20027;-91
2022/12/28 03:50:53;;;;;;;;;;;13.70;72.20;;;;;;5081240;28;20007;-90
2022/12/28 03:53:21;;;;;;;;;;;13.60;72.30;;;;;;5081420;28;19999;-91
2022/12/28 03:55:47;;;;;;;;;;;13.70;72.80;;;;;;5080104;28;19916;-90
2022/12/28 03:58:13;;;;;;;;;;;14.80;67.50;;;;;;5081358;28;20330;-90
2022/12/28 04:00:38;;;;;;;;;;;15.50;63.70;;;;;;5081407;28;19908;-90
2022/12/28 04:03:04;;;;;;;;;;;15.90;61.30;;;;;;5080189;28;19927;-89
2022/12/28 04:05:30;;;;;;;;;;;16.20;59.90;;;;;;5079962;28;19919;-90
2022/12/28 04:07:55;;;;;;;;;;;16.40;59.10;;;;;;5097164;28;19912;-90
2022/12/28 04:10:21;;;;;;;;;;;16.70;58.40;;;;;;5080118;28;19920;-90
2022/12/28 04:12:47;;;;;;;;;;;16.90;57.80;;;;;;5079079;28;20288;-90
2022/12/28 04:15:12;;;;;;;;;;;17.10;57.30;;;;;;5079623;28;19962;-90
2022/12/28 04:17:38;;;;;;;;;;;17.30;57.00;;;;;;5080585;28;19908;-90
2022/12/28 04:20:04;;;;;;;;;;;17.30;56.70;;;;;;5081122;28;19938;-90
2022/12/28 04:22:30;;;;;;;;;;;17.40;56.60;;;;;;5079426;28;19999;-90
2022/12/28 04:24:55;;;;;;;;;;;17.60;56.30;;;;;;5079847;28;19916;-90
2022/12/28 04:27:22;;;;;;;;;;;17.80;55.80;;;;;;5079637;28;19920;-90
2022/12/28 04:29:48;;;;;;;;;;;18.00;55.50;;;;;;5080035;28;19908;-90
2022/12/28 04:32:14;;;;;;;;;;;18.10;55.30;;;;;;5079714;28;19938;-90
2022/12/28 04:34:39;;;;;;;;;;;18.00;55.20;;;;;;5079683;28;19955;-90
2022/12/28 04:37:05;;;;;;;;;;;18.00;55.30;;;;;;5079549;28;19908;-90
2022/12/28 04:39:31;;;;;;;;;;;18.00;55.30;;;;;;5080186;28;20281;-91
2022/12/28 04:41:56;;;;;;;;;;;18.00;55.20;;;;;;5097407;28;19912;-90
2022/12/28 04:44:22;;;;;;;;;;;18.20;55.00;;;;;;5079202;28;19969;-90
2022/12/28 04:46:48;;;;;;;;;;;18.30;54.80;;;;;;5078285;28;19912;-90
2022/12/28 04:49:13;;;;;;;;;;;18.40;54.60;;;;;;5078449;28;19908;-90
2022/12/28 04:51:39;;;;;;;;;;;18.50;54.50;;;;;;5078724;28;19999;-90
2022/12/28 04:54:05;;;;;;;;;;;18.50;54.50;;;;;;5078920;28;19916;-91
2022/12/28 04:56:31;;;;;;;;;;;18.40;54.50;;;;;;5078328;28;19908;-91
2022/12/28 04:58:58;;;;;;;;;;;18.30;54.60;;;;;;5079147;28;19970;-90
2022/12/28 05:01:24;;;;;;;;;;;18.20;54.70;;;;;;5077683;28;20191;-90
2022/12/28 05:03:50;;;;;;;;;;;18.10;54.90;;;;;;5077511;28;19912;-91
2022/12/28 05:06:17;;;;;;;;;;;18.00;55.10;;;;;;5077203;28;19920;-91
2022/12/28 05:08:43;;;;;;;;;;;17.90;55.40;;;;;;5076037;28;19919;-91
2022/12/28 05:11:16;;;;;;;;;;;17.80;56.00;;;;;;5076648;28;19908;-92
2022/12/28 05:13:42;;;;;;;;;;;17.70;55.90;;;;;;5077527;28;19994;-92
2022/12/28 05:16:10;;;;;;;;;;;17.50;56.20;;;;;;5077540;28;19908;-92
2022/12/28 05:18:35;;;;;;;;;;;17.40;56.40;;;;;;5078119;28;19908;-91
2022/12/28 05:21:02;;;;;;;;;;;17.30;56.80;;;;;;5077867;28;19919;-92
2022/12/28 05:23:28;;;;;;;;;;;17.10;57.00;;;;;;5078434;28;19908;-91
2022/12/28 05:25:54;;;;;;;;;;;17.00;57.30;;;;;;5078087;28;20200;-91
2022/12/28 05:28:19;;;;;;;;;;;16.90;57.70;;;;;;5077116;28;20270;-91
2022/12/28 05:30:45;;;;;;;;;;;16.80;58.00;;;;;;5076730;28;20289;-91
2022/12/28 05:33:11;;;;;;;;;;;16.70;58.40;;;;;;5077656;28;19912;-91
2022/12/28 05:35:36;;;;;;;;;;;16.60;58.70;;;;;;5076626;28;19916;-90
2022/12/28 05:38:02;;;;;;;;;;;16.50;58.90;;;;;;5077001;28;19919;-92
2022/12/28 05:40:28;;;;;;;;;;;16.50;59.10;;;;;;5077647;28;19918;-92
2022/12/28 05:42:54;;;;;;;;;;;16.50;59.00;;;;;;5078236;28;19908;-91
2022/12/28 05:45:19;;;;;;;;;;;16.60;59.00;;;;;;5077531;28;19914;-92
2022/12/28 05:47:45;;;;;;;;;;;16.70;58.60;;;;;;5077660;28;19920;-91
2022/12/28 05:50:10;;;;;;;;;;;16.90;58.20;;;;;;5076896;28;20147;-92
2022/12/28 05:52:36;;;;;;;;;;;17.10;57.70;;;;;;5076943;28;19974;-91
2022/12/28 05:55:02;;;;;;;;;;;17.40;57.10;;;;;;5077082;28;19993;-91
2022/12/28 05:57:27;;;;;;;;;;;17.60;56.60;;;;;;5076265;28;20006;-91
2022/12/28 05:59:53;;;;;;;;;;;17.80;56.10;;;;;;5076679;28;19908;-91
2022/12/28 06:02:18;;;;;;;;;;;17.90;55.80;;;;;;5077977;28;20006;-91
2022/12/28 06:04:44;;;;;;;;;;;18.00;55.60;;;;;;5093982;28;19908;-91
2022/12/28 06:07:09;;;;;;;;;;;18.10;55.40;;;;;;5077045;28;19923;-92
2022/12/28 06:09:35;;;;;;;;;;;18.20;55.30;;;;;;5077741;28;19908;-91
2022/12/28 06:12:03;;;;;;;;;;;18.20;55.30;;;;;;5077367;28;19908;-92
2022/12/28 06:14:29;;;;;;;;;;;18.20;55.10;;;;;;5094955;28;19972;-92
2022/12/28 06:16:54;;;;;;;;;;;18.20;55.10;;;;;;5077982;28;19916;-91
2022/12/28 06:19:20;;;;;;;;;;;18.20;55.10;;;;;;5077430;28;19915;-91
2022/12/28 06:21:46;;;;;;;;;;;18.20;55.20;;;;;;5077413;28;19919;-91
2022/12/28 06:24:12;;;;;;;;;;;18.10;55.20;;;;;;5076529;28;19936;-91
2022/12/28 06:26:39;;;;;;;;;;;18.10;55.30;;;;;;5076789;28;20092;-91
2022/12/28 06:29:04;;;;;;;;;;;18.00;55.50;;;;;;5077347;28;19978;-91
2022/12/28 06:31:35;;;;;;;;;;;17.90;55.60;;;;;;5078060;28;19955;-92
2022/12/28 06:34:01;;;;;;;;;;;17.90;55.80;;;;;;5076326;28;19908;-91
2022/12/28 06:36:45;;;;;;;;;;;17.70;56.00;;;;;;5076211;28;19908;-91
2022/12/28 06:39:12;;;;;;;;;;;17.70;56.20;;;;;;5076172;28;19916;-91
2022/12/28 06:41:38;;;;;;;;;;;17.50;56.40;;;;;;5075971;28;19915;-91
2022/12/28 06:44:11;;;;;;;;;;;17.50;56.60;;;;;;5074565;28;19908;-91
2022/12/28 06:46:37;;;;;;;;;;;17.40;56.80;;;;;;5077081;28;20264;-91
2022/12/28 06:49:03;;;;;;;;;;;17.30;56.90;;;;;;5076665;28;19908;-91
2022/12/28 06:51:30;;;;;;;;;;;17.30;57.20;;;;;;5076708;28;19914;-91
2022/12/28 06:53:55;;;;;;;;;;;17.20;57.30;;;;;;5076281;28;19908;-92
2022/12/28 06:56:26;;;;;;;;;;;17.10;57.50;;;;;;5076731;28;20274;-91
2022/12/28 06:58:52;;;;;;;;;;;17.10;57.70;;;;;;5076747;28;19919;-91
2022/12/28 07:01:19;;;;;;;;;;;17.00;57.80;;;;;;5076632;28;19909;-90
2022/12/28 07:03:45;;;;;;;;;;;17.00;58.00;;;;;;5075964;28;19919;-91
2022/12/28 07:06:12;;;;;;;;;;;17.00;58.10;;;;;;5076491;28;19966;-91
2022/12/28 07:08:38;;;;;;;;;;;17.00;58.00;;;;;;5076636;28;19908;-91
2022/12/28 07:11:08;;;;;;;;;;;17.10;57.90;;;;;;5076700;28;19908;-91
2022/12/28 07:13:33;;;;;;;;;;;17.10;57.80;;;;;;5075680;28;19999;-90
2022/12/28 07:16:07;;;;;;;;;;;17.10;57.70;;;;;;5075404;28;19998;-90
2022/12/28 07:18:33;;;;;;;;;;;17.30;57.60;;;;;;5076283;28;19916;-91
2022/12/28 07:21:03;;;;;;;;;;;17.40;57.30;;;;;;5075097;28;20102;-92
2022/12/28 07:23:30;;;;;;;;;;;17.50;57.00;;;;;;5073720;28;20248;-90
2022/12/28 07:26:06;;;;;;;;;;;17.60;56.80;;;;;;5074161;28;19989;-91
2022/12/28 07:28:31;;;;;;;;;;;17.70;56.50;;;;;;5076102;28;19934;-91
2022/12/28 07:30:57;;;;;;;;;;;17.80;56.30;;;;;;5075970;28;19912;-91
2022/12/28 07:33:23;;;;;;;;;;;17.90;56.20;;;;;;5079889;28;20066;-91
2022/12/28 07:35:48;;;;;;;;;;;17.90;56.10;;;;;;5080172;28;19908;-92
2022/12/28 07:38:14;;;;;;;;;;;18.00;56.00;;;;;;5077868;28;19908;-91
2022/12/28 07:40:40;;;;;;;;;;;18.00;55.90;;;;;;5076673;28;19909;-91
2022/12/28 07:43:05;;;;;;;;;;;18.00;55.90;;;;;;5075743;28;19934;-91
2022/12/28 07:45:31;;;;;;;;;;;18.00;55.80;;;;;;5077946;28;19908;-91
2022/12/28 07:47:57;;;;;;;;;;;18.10;55.80;;;;;;5077155;28;19966;-91
2022/12/28 07:50:22;;;;;;;;;;;18.10;55.80;;;;;;5076772;28;20154;-92
2022/12/28 07:52:48;;;;;;;;;;;18.00;55.80;;;;;;5076865;28;19919;-91
2022/12/28 07:55:13;;;;;;;;;;;18.00;56.00;;;;;;5077924;28;19909;-91
2022/12/28 07:57:39;;;;;;;;;;;17.90;56.10;;;;;;5076675;28;19962;-91
2022/12/28 08:00:06;;;;;;;;;;;17.80;56.30;;;;;;5077525;28;19908;-92
2022/12/28 08:02:31;;;;;;;;;;;17.80;56.40;;;;;;5076877;28;19920;-91
2022/12/28 08:04:57;;;;;;;;;;;17.70;56.50;;;;;;5080665;28;19912;-91
2022/12/28 08:07:22;;;;;;;;;;;17.70;56.90;;;;;;5077081;28;19931;-91
2022/12/28 08:09:48;;;;;;;;;;;17.70;57.20;;;;;;5077603;28;19912;-91
2022/12/28 08:12:14;;;;;;;;;;;17.70;57.40;;;;;;5077814;28;19912;-91
2022/12/28 08:14:39;;;;;;;;;;;17.60;57.80;;;;;;5077445;28;19908;-91
2022/12/28 08:17:05;;;;;;;;;;;17.60;58.30;;;;;;5074947;28;20155;-91
2022/12/28 08:19:31;;;;;;;;;;;17.50;58.70;;;;;;5075796;28;20262;-91
2022/12/28 08:21:56;;;;;;;;;;;17.50;58.90;;;;;;5075840;28;19961;-91
2022/12/28 08:24:22;;;;;;;;;;;17.50;59.30;;;;;;5075960;28;19912;-92
2022/12/28 08:26:48;;;;;;;;;;;17.40;59.60;;;;;;5076257;28;20007;-91
2022/12/28 08:29:16;;;;;;;;;;;17.30;59.90;;;;;;5075819;28;19988;-91
2022/12/28 08:31:42;;;;;;;;;;;17.30;60.60;;;;;;5073601;28;20083;-91
2022/12/28 08:34:09;;;;;;;;;;;17.30;61.00;;;;;;5073968;28;19908;-90
2022/12/28 08:36:35;;;;;;;;;;;17.30;61.70;;;;;;5075085;28;19908;-91
2022/12/28 08:39:02;;;;;;;;;;;17.30;62.40;;;;;;5074444;28;19919;-91
2022/12/28 08:41:28;;;;;;;;;;;17.20;62.50;;;;;;5073962;28;19908;-92
2022/12/28 08:43:54;;;;;;;;;;;17.30;63.20;;;;;;5081125;28;19997;-92
2022/12/28 08:46:23;;;;;;;;;;;17.30;63.70;;;;;;5075398;28;19977;-92
2022/12/28 08:48:50;;;;;;;;;;;17.30;64.10;;;;;;5092481;28;19934;-92
2022/12/28 08:51:24;;;;;;;;;;;17.30;64.30;;;;;;5073133;28;19908;-91
2022/12/28 08:53:49;;;;;;;;;;;17.30;65.10;;;;;;5074371;28;20385;-91
2022/12/28 08:56:16;;;;;;;;;;;17.20;65.50;;;;;;5074444;28;19908;-91
2022/12/28 08:58:42;;;;;;;;;;;17.10;66.20;;;;;;5074183;28;19912;-91
2022/12/28 09:01:09;;;;;;;;;;;17.00;67.10;;;;;;5073055;28;19908;-91
2022/12/28 09:03:36;;;;;;;;;;;16.90;67.70;;;;;;5072932;28;20197;-92
2022/12/28 09:06:07;;;;;;;;;;;16.80;68.40;;;;;;5076341;28;20265;-92
2022/12/28 09:08:33;;;;;;;;;;;16.70;69.20;;;;;;5075037;28;19912;-90
2022/12/28 09:11:02;;;;;;;;;;;16.60;69.60;;;;;;5073607;28;19923;-91
2022/12/28 09:13:28;;;;;;;;;;;16.60;69.60;;;;;;5072056;28;19970;-91
2022/12/28 09:16:01;;;;;;;;;;;16.60;69.30;;;;;;5073101;28;19919;-91
2022/12/28 09:18:27;;;;;;;;;;;16.70;68.70;;;;;;5073919;28;20339;-91
2022/12/28 09:20:53;;;;;;;;;;;17.00;67.80;;;;;;5075138;28;19962;-91
2022/12/28 09:23:18;;;;;;;;;;;17.20;66.30;;;;;;5070076;28;19912;-91
2022/12/28 09:25:44;;;;;;;;;;;17.70;64.00;;;;;;5071067;28;20084;-91
2022/12/28 09:28:10;;;;;;;;;;;18.00;62.00;;;;;;5072158;28;19988;-91
2022/12/28 09:30:36;;;;;;;;;;;18.30;60.60;;;;;;5073152;28;19947;-91
2022/12/28 09:35:45;;;;;;;;;;;18.60;59.30;;;;;;5087665;28;20190;-91
2022/12/28 09:38:11;;;;;;;;;;;18.70;58.90;;;;;;5070786;28;20003;-91
2022/12/28 09:40:36;;;;;;;;;;;18.70;58.60;;;;;;5070424;28;20015;-91
2022/12/28 09:43:03;;;;;;;;;;;18.70;58.60;;;;;;5070654;28;20007;-91
2022/12/28 09:45:30;;;;;;;;;;;18.70;58.70;;;;;;5069846;28;19991;-91
2022/12/28 09:48:02;;;;;;;;;;;18.60;58.80;;;;;;5072782;28;19959;-91
2022/12/28 09:50:29;;;;;;;;;;;18.50;59.00;;;;;;5073065;28;19999;-91
2022/12/28 09:52:54;;;;;;;;;;;18.40;59.30;;;;;;5072278;28;19912;-92
2022/12/28 09:55:20;;;;;;;;;;;18.20;59.60;;;;;;5070689;28;19919;-91
2022/12/28 09:57:50;;;;;;;;;;;18.10;59.90;;;;;;5071974;28;20090;-91
2022/12/28 10:00:17;;;;;;;;;;;18.00;60.60;;;;;;5070963;28;19915;-91
2022/12/28 10:02:46;;;;;;;;;;;17.80;61.10;;;;;;5072951;28;19962;-91
2022/12/28 10:05:11;;;;;;;;;;;17.80;61.60;;;;;;5072691;28;20311;-91
2022/12/28 10:07:37;;;;;;;;;;;17.70;62.10;;;;;;5071582;28;20219;-91
2022/12/28 10:10:03;;;;;;;;;;;17.60;62.40;;;;;;5072326;28;19919;-91
2022/12/28 10:12:30;;;;;;;;;;;17.50;62.90;;;;;;5073419;28;19916;-91
2022/12/28 10:14:56;;;;;;;;;;;17.50;63.20;;;;;;5071539;28;19908;-91
2022/12/28 10:17:25;;;;;;;;;;;17.40;63.70;;;;;;5071711;28;19908;-91
2022/12/28 10:19:53;;;;;;;;;;;17.30;64.10;;;;;;5073074;28;19932;-91
2022/12/28 10:22:19;;;;;;;;;;;17.20;64.50;;;;;;5071577;28;19912;-91
2022/12/28 10:24:45;;;;;;;;;;;17.10;64.80;;;;;;5071841;28;20289;-91
2022/12/28 10:27:12;;;;;;;;;;;17.10;65.20;;;;;;5071667;28;19919;-91
2022/12/28 10:29:40;;;;;;;;;;;17.00;65.40;;;;;;5071995;28;19908;-91
2022/12/28 10:32:08;;;;;;;;;;;17.00;65.70;;;;;;5070755;28;19919;-91
2022/12/28 10:34:34;;;;;;;;;;;17.00;65.90;;;;;;5089053;28;20217;-91
2022/12/28 10:37:05;;;;;;;;;;;17.00;66.00;;;;;;5070756;28;20236;-91
2022/12/28 10:39:31;;;;;;;;;;;17.00;65.90;;;;;;5072177;28;19938;-90
2022/12/28 10:41:58;;;;;;;;;;;17.10;65.80;;;;;;5070626;28;19908;-91
2022/12/28 10:44:34;;;;;;;;;;;17.10;65.40;;;;;;5072502;28;19923;-91
2022/12/28 10:47:04;;;;;;;;;;;17.30;65.10;;;;;;5073365;28;20193;-91
2022/12/28 10:49:32;;;;;;;;;;;17.40;64.40;;;;;;5071551;28;19908;-91
2022/12/28 10:51:59;;;;;;;;;;;17.50;63.70;;;;;;5073225;28;19912;-91
2022/12/28 10:54:25;;;;;;;;;;;17.70;62.90;;;;;;5072448;28;20015;-90
2022/12/28 10:56:51;;;;;;;;;;;17.80;62.10;;;;;;5072292;28;20337;-91
2022/12/28 10:59:18;;;;;;;;;;;17.90;61.60;;;;;;5091279;28;20293;-90
2022/12/28 11:01:44;;;;;;;;;;;18.00;61.20;;;;;;5071867;28;20292;-90
2022/12/28 11:04:22;;;;;;;;;;;18.10;61.00;;;;;;5089451;28;19908;-91
2022/12/28 11:06:55;;;;;;;;;;;18.10;60.80;;;;;;5076057;28;19923;-91
2022/12/28 11:09:23;;;;;;;;;;;18.10;60.70;;;;;;5076221;28;19912;-91
2022/12/28 11:11:50;;;;;;;;;;;18.10;60.40;;;;;;5076384;28;20195;-91
2022/12/28 11:14:24;;;;;;;;;;;18.20;60.30;;;;;;5073406;28;19909;-90
2022/12/28 11:16:52;;;;;;;;;;;18.10;60.30;;;;;;5075254;28;19916;-90
2022/12/28 11:19:17;;;;;;;;;;;18.10;60.50;;;;;;5075713;28;20015;-91
2022/12/28 11:21:43;;;;;;;;;;;18.10;60.60;;;;;;5073652;28;20019;-90
2022/12/28 11:24:16;;;;;;;;;;;18.00;60.90;;;;;;5072438;28;19908;-90
2022/12/28 11:26:43;;;;;;;;;;;18.00;61.10;;;;;;5073142;28;20181;-90
2022/12/28 11:29:09;;;;;;;;;;;17.90;61.30;;;;;;5072584;28;19908;-90
2022/12/28 11:31:38;;;;;;;;;;;17.90;61.70;;;;;;5070603;28;20170;-90
2022/12/28 11:34:05;;;;;;;;;;;17.80;61.90;;;;;;5073591;28;19908;-90
2022/12/28 11:36:36;;;;;;;;;;;17.80;62.20;;;;;;5072232;28;19961;-90
2022/12/28 11:39:21;;;;;;;;;;;17.70;62.50;;;;;;5072158;28;19913;-90
2022/12/28 11:41:49;;;;;;;;;;;17.60;62.80;;;;;;5072721;28;20064;-90
2022/12/28 11:44:19;;;;;;;;;;;17.60;63.20;;;;;;5073181;28;19944;-91
2022/12/28 11:46:57;;;;;;;;;;;17.50;63.20;;;;;;5074098;28;19912;-91
2022/12/28 11:49:25;;;;;;;;;;;17.50;63.50;;;;;;5073719;28;20225;-91
2022/12/28 11:52:09;;;;;;;;;;;17.50;63.70;;;;;;5074366;28;20120;-91
2022/12/28 11:54:36;;;;;;;;;;;17.40;64.00;;;;;;5074591;28;20158;-90
2022/12/28 11:57:02;;;;;;;;;;;17.40;64.20;;;;;;5075161;28;19912;-91
2022/12/28 11:59:29;;;;;;;;;;;17.30;64.50;;;;;;5075194;28;20061;-91
2022/12/28 12:01:56;;;;;;;;;;;17.30;64.80;;;;;;5075615;28;20015;-90
2022/12/28 12:04:29;;;;;;;;;;;17.20;65.70;;;;;;5074323;28;19908;-91
2022/12/28 12:07:00;;;;;;;;;;;17.30;65.30;;;;;;5074888;28;19912;-91
2022/12/28 12:09:29;;;;;;;;;;;17.30;65.20;;;;;;5074313;28;20171;-91
2022/12/28 12:11:59;;;;;;;;;;;17.30;65.10;;;;;;5074659;28;19996;-91
2022/12/28 12:14:31;;;;;;;;;;;17.30;65.20;;;;;;5072706;28;19908;-91
2022/12/28 12:17:01;;;;;;;;;;;17.30;65.30;;;;;;5071531;28;20159;-91
2022/12/28 12:19:29;;;;;;;;;;;17.30;65.40;;;;;;5072339;28;20185;-91
2022/12/28 12:22:00;;;;;;;;;;;17.20;65.50;;;;;;5073938;28;20228;-91
2022/12/28 12:24:31;;;;;;;;;;;17.20;65.60;;;;;;5076504;28;20213;-91
2022/12/28 12:27:32;;;;;;;;;;;17.20;65.60;;;;;;5074678;28;19947;-91
2022/12/28 12:30:02;;;;;;;;;;;17.20;65.60;;;;;;5029333;28;19953;-91
2022/12/28 12:32:33;;;;;;;;;;;17.30;65.50;;;;;;5071927;28;19908;-91
2022/12/28 12:35:03;;;;;;;;;;;17.40;65.30;;;;;;5071845;28;20012;-91
2022/12/28 12:37:31;;;;;;;;;;;17.30;65.60;;;;;;5078858;28;20262;-92
2022/12/28 12:40:12;;;;;;;;;;;17.40;65.80;;;;;;5071527;28;19938;-91
2022/12/28 12:42:38;;;;;;;;;;;17.40;65.60;;;;;;5071655;28;20073;-91
2022/12/28 12:45:16;;;;;;;;;;;17.40;65.30;;;;;;5071574;28;19912;-91
2022/12/28 12:47:45;;;;;;;;;;;17.50;65.20;;;;;;5074166;28;19919;-90
2022/12/28 12:50:29;;;;;;;;;;;17.50;65.00;;;;;;5073885;28;19919;-91
2022/12/28 12:53:13;;;;;;;;;;;17.50;64.80;;;;;;5073821;28;20246;-91
2022/12/28 12:55:39;;;;;;;;;;;17.60;64.50;;;;;;5074049;28;19908;-91
2022/12/28 12:58:26;;;;;;;;;;;17.70;64.20;;;;;;5074223;28;19919;-91
2022/12/28 13:00:58;;;;;;;;;;;17.80;63.90;;;;;;5072746;28;19998;-91
2022/12/28 13:03:36;;;;;;;;;;;17.80;64.00;;;;;;5073394;28;20306;-92
2022/12/28 13:06:02;;;;;;;;;;;17.80;63.90;;;;;;5072425;28;20436;-91
2022/12/28 13:08:37;;;;;;;;;;;17.80;64.20;;;;;;5073319;28;19908;-92
2022/12/28 13:11:06;;;;;;;;;;;17.80;64.50;;;;;;5071544;28;19908;-92
2022/12/28 13:13:34;;;;;;;;;;;17.80;64.70;;;;;;5070933;28;20348;-92
2022/12/28 13:16:04;;;;;;;;;;;17.80;64.80;;;;;;5074009;28;19939;-92
2022/12/28 13:18:30;;;;;;;;;;;17.80;64.70;;;;;;5074984;28;20177;-91
2022/12/28 13:20:57;;;;;;;;;;;17.80;64.80;;;;;;5072538;28;19908;-92
2022/12/28 13:23:23;;;;;;;;;;;17.70;65.30;;;;;;5073890;28;19910;-91
2022/12/28 13:25:52;;;;;;;;;;;17.50;65.90;;;;;;5071964;28;19934;-92
2022/12/28 13:28:36;;;;;;;;;;;17.40;66.50;;;;;;5069904;28;19912;-92
2022/12/28 13:31:14;;;;;;;;;;;17.30;67.00;;;;;;5070283;28;19912;-91
2022/12/28 13:33:40;;;;;;;;;;;17.20;67.70;;;;;;5070577;28;19937;-91
2022/12/28 13:36:08;;;;;;;;;;;17.10;68.30;;;;;;5069690;28;19909;-92
2022/12/28 13:38:34;;;;;;;;;;;17.00;68.80;;;;;;5069646;28;20010;-91
2022/12/28 13:41:00;;;;;;;;;;;16.90;69.60;;;;;;5069756;28;20258;-91
2022/12/28 13:43:26;;;;;;;;;;;16.80;69.90;;;;;;5069574;28;19915;-91
2022/12/28 13:45:54;;;;;;;;;;;16.80;70.20;;;;;;5069721;28;19918;-91
2022/12/28 13:48:20;;;;;;;;;;;16.80;70.30;;;;;;5069803;28;20028;-91
2022/12/28 13:50:46;;;;;;;;;;;16.80;70.60;;;;;;5069348;28;20174;-91
2022/12/28 13:53:14;;;;;;;;;;;16.90;70.60;;;;;;5068480;28;20261;-90
2022/12/28 13:55:44;;;;;;;;;;;17.00;70.20;;;;;;5068645;28;20003;-91
2022/12/28 13:58:13;;;;;;;;;;;17.20;69.50;;;;;;5069516;28;19908;-91
2022/12/28 14:00:42;;;;;;;;;;;17.40;68.40;;;;;;5069850;28;19973;-90
2022/12/28 14:03:09;;;;;;;;;;;17.60;67.30;;;;;;5067779;28;19942;-90
2022/12/28 14:05:34;;;;;;;;;;;17.80;65.90;;;;;;5068386;28;20289;-91
2022/12/28 14:08:01;;;;;;;;;;;18.10;64.50;;;;;;5069394;28;19912;-90
2022/12/28 14:10:27;;;;;;;;;;;18.30;63.50;;;;;;5070639;28;19908;-91
2022/12/28 14:12:53;;;;;;;;;;;18.40;62.60;;;;;;5067614;28;19935;-91
2022/12/28 14:15:18;;;;;;;;;;;18.50;62.10;;;;;;5068862;28;19908;-91
2022/12/28 14:17:45;;;;;;;;;;;18.50;62.00;;;;;;5070743;28;19912;-91
2022/12/28 14:20:10;;;;;;;;;;;18.60;61.70;;;;;;5069486;28;20167;-92
2022/12/28 14:22:37;;;;;;;;;;;18.50;61.70;;;;;;5053712;28;20175;-90
2022/12/28 14:25:10;;;;;;;;;;;18.50;62.10;;;;;;5069935;28;20190;-91
2022/12/28 14:27:38;;;;;;;;;;;18.40;62.40;;;;;;5069226;28;20185;-91
2022/12/28 14:30:05;;;;;;;;;;;18.30;63.00;;;;;;5066477;28;19920;-91
2022/12/28 14:32:32;;;;;;;;;;;18.20;63.60;;;;;;5065863;28;19943;-91
2022/12/28 14:34:58;;;;;;;;;;;18.00;64.20;;;;;;5067097;28;19980;-91
2022/12/28 14:37:36;;;;;;;;;;;17.90;64.60;;;;;;5069881;28;19919;-91
2022/12/28 14:40:04;;;;;;;;;;;17.90;65.10;;;;;;5070610;28;19912;-91
2022/12/28 14:42:30;;;;;;;;;;;17.80;65.60;;;;;;5076659;28;20047;-91
2022/12/28 14:44:57;;;;;;;;;;;17.70;66.00;;;;;;5077630;28;20053;-90
2022/12/28 14:47:43;;;;;;;;;;;17.60;66.50;;;;;;5076731;28;19912;-91
2022/12/28 14:50:22;;;;;;;;;;;17.60;66.90;;;;;;5076521;28;19908;-91
2022/12/28 14:52:48;;;;;;;;;;;17.50;67.50;;;;;;5078929;28;20289;-91